Aeroporto :
LOGIN :

Iscrizione | Disclaimer

   EN    FR    IT 

 










Sommario :    VFR   VFR Marginale   IFR   IFR Intensivo   IFR Molto Intensivo
Visibilità : 
Base nubi : 
>= 8 km
>= 3000ft
5 / 8 km
1000 / 3000 ft
1500m / 5 km
500 / 1000 ft
800 / 1500m
200 / 500 ft
< 800m
< 200 ft
Simboli :   Temporali  Nebbia  Neve Forte  Precipitazioni Forti  Vento > 20 kt
SIGMETs :   Varie  Temporali  Ghiacco  Turbolenza  Onda orograficha  Ceneri Vulcaniche






- Altitudine del aeroporto : 46 ft
- Codice IATA : SNN


EINN - Shannon

ULTIMO METAR :
  • 270530Z 27003KT 9999 FEW012 01/00 Q1003 NOSIG

METARs OBSOLETI :
  • 270500Z 28004KT 9999 FEW008 01/00 Q1002 NOSIG
  • 270430Z 33006KT 9999 FEW008 01/01 Q1002 NOSIG
  • 270400Z 34004KT 9999 FEW008 02/01 Q1001 NOSIG
  • 270330Z 31005KT 9999 FEW008 SCT060 02/01 Q1001 NOSIG
  • 270300Z 30005KT 9999 FEW008 SCT015 BKN025 02/02 Q1001 NOSIG

TAF TAF EINN
Valido dal 27 a 06 ore il 28 a 06 ore UTC


270500Z 2706/2806 30006KT 9999 SCT007 SCT025
PROB30
TEMPO 2706/2708 3000 BR BKN007
TEMPO 2712/2716 29012KT
BECMG 2718/2720 15007KT
BECMG 2802/2804 13015KT -RA BKN012
TEMPO 2804/2806 13018G30KT 5000 BKN007



MetMap, La meteo Aeronautica in un colpo d'occhio ! - Copyright ORBIFLY Dicembre 2007 - Disclaimer

ORBIFLY MET'MAP TEAM :

Programmazione e sviluppo : Alexandra Zaïnal
Concezione : Baudouin d'Aumeries
Aiuto per la programmazione : Marc-Olivier Méhu
Supporto tecnico e logistico : Manuel Goepfert
Aiuto per la traduzione : Arnaldo La Scala

Contatto : metmap@orbifly.com




FONTI E CREDITI :

   NOAA